createdAt,value
2023-01-29T00:01:26.813Z,100.00
2023-01-29T00:03:54.181Z,100.00
2023-01-29T00:06:21.132Z,100.00
2023-01-29T00:08:48.978Z,100.00
2023-01-29T00:11:21.415Z,100.00
2023-01-29T00:13:50.161Z,100.00
2023-01-29T00:16:17.977Z,100.00
2023-01-29T00:18:45.955Z,100.00
2023-01-29T00:21:15.744Z,100.00
2023-01-29T00:23:43.718Z,100.00
2023-01-29T00:26:11.766Z,100.00
2023-01-29T00:28:38.788Z,100.00
2023-01-29T00:31:17.629Z,100.00
2023-01-29T00:33:44.883Z,100.00
2023-01-29T00:36:13.409Z,100.00
2023-01-29T00:38:40.427Z,100.00
2023-01-29T00:41:30.975Z,100.00
2023-01-29T00:44:17.151Z,100.00
2023-01-29T00:46:44.215Z,100.00
2023-01-29T00:49:11.448Z,100.00
2023-01-29T00:51:40.268Z,100.00
2023-01-29T00:54:07.404Z,100.00
2023-01-29T00:56:37.694Z,100.00
2023-01-29T00:59:05.600Z,100.00
2023-01-29T01:01:54.224Z,100.00
2023-01-29T01:04:21.292Z,100.00
2023-01-29T01:06:48.148Z,100.00
2023-01-29T01:09:33.650Z,100.00
2023-01-29T01:12:00.456Z,100.00
2023-01-29T01:14:27.466Z,100.00
2023-01-29T01:16:54.652Z,100.00
2023-01-29T01:19:21.621Z,100.00
2023-01-29T01:21:48.855Z,100.00
2023-01-29T01:24:15.882Z,100.00
2023-01-29T01:26:43.282Z,100.00
2023-01-29T01:29:10.181Z,100.00
2023-01-29T01:31:39.596Z,100.00
2023-01-29T01:34:06.854Z,100.00
2023-01-29T01:36:33.601Z,100.00
2023-01-29T01:39:00.710Z,100.00
2023-01-29T01:41:27.958Z,100.00
2023-01-29T01:44:03.105Z,100.00
2023-01-29T01:46:32.432Z,100.00
2023-01-29T01:49:10.230Z,100.00
2023-01-29T01:51:41.291Z,100.00
2023-01-29T01:54:13.015Z,100.00
2023-01-29T01:56:45.820Z,100.00
2023-01-29T01:59:16.593Z,100.00
2023-01-29T02:01:50.455Z,100.00
2023-01-29T02:04:42.766Z,100.00
2023-01-29T02:07:33.267Z,100.00
2023-01-29T02:10:09.070Z,100.00
2023-01-29T02:12:39.147Z,100.00
2023-01-29T02:15:07.565Z,100.00
2023-01-29T02:17:35.267Z,100.00
2023-01-29T02:20:24.514Z,100.00
2023-01-29T02:23:23.069Z,100.00
2023-01-29T02:26:05.066Z,100.00
2023-01-29T02:28:54.119Z,100.00
2023-01-29T02:31:43.900Z,100.00
2023-01-29T02:34:28.009Z,100.00
2023-01-29T02:37:05.685Z,100.00
2023-01-29T02:39:46.324Z,100.00
2023-01-29T02:42:28.968Z,100.00
2023-01-29T02:45:14.874Z,100.00
2023-01-29T02:48:15.288Z,100.00
2023-01-29T02:51:00.348Z,100.00
2023-01-29T02:53:45.255Z,100.00
2023-01-29T02:56:46.663Z,100.00
2023-01-29T02:59:18.959Z,100.00
2023-01-29T03:01:50.241Z,100.00
2023-01-29T03:04:23.047Z,100.00
2023-01-29T03:06:55.047Z,100.00
2023-01-29T03:09:39.981Z,100.00
2023-01-29T03:12:34.130Z,100.00
2023-01-29T03:15:25.550Z,100.00
2023-01-29T03:17:59.125Z,100.00
2023-01-29T03:20:33.672Z,100.00
2023-01-29T03:23:48.013Z,100.00
2023-01-29T03:26:40.606Z,100.00
2023-01-29T03:29:28.845Z,100.00
2023-01-29T03:32:07.522Z,100.00
2023-01-29T03:34:44.524Z,100.00
2023-01-29T03:37:21.359Z,100.00
2023-01-29T03:39:48.599Z,100.00
2023-01-29T03:42:33.760Z,100.00
2023-01-29T03:45:15.592Z,100.00
2023-01-29T03:48:00.331Z,100.00
2023-01-29T03:50:48.461Z,100.00
2023-01-29T03:53:24.487Z,100.00
2023-01-29T03:56:03.988Z,100.00
2023-01-29T03:58:37.515Z,100.00
2023-01-29T04:01:11.408Z,100.00
2023-01-29T04:03:43.994Z,100.00
2023-01-29T04:06:20.831Z,100.00
2023-01-29T04:08:59.040Z,100.00
2023-01-29T04:11:29.054Z,100.00
2023-01-29T04:13:58.212Z,100.00
2023-01-29T04:16:34.201Z,100.00
2023-01-29T04:19:01.715Z,100.00
2023-01-29T04:21:34.797Z,100.00
2023-01-29T04:24:02.703Z,100.00
2023-01-29T04:26:54.848Z,100.00
2023-01-29T04:29:54.765Z,100.00
2023-01-29T04:32:34.963Z,100.00
2023-01-29T04:35:17.438Z,100.00
2023-01-29T04:37:53.391Z,100.00
2023-01-29T04:40:32.382Z,100.00
2023-01-29T04:43:13.901Z,100.00
2023-01-29T04:46:07.383Z,100.00
2023-01-29T04:48:54.163Z,100.00
2023-01-29T04:51:57.889Z,100.00
2023-01-29T04:54:27.918Z,100.00
2023-01-29T04:57:05.601Z,100.00
2023-01-29T04:59:38.847Z,100.00
2023-01-29T05:07:30.841Z,100.00
2023-01-29T05:09:58.779Z,100.00
2023-01-29T05:12:28.953Z,100.00
2023-01-29T05:15:01.538Z,100.00
2023-01-29T05:17:28.827Z,100.00
2023-01-29T05:19:56.976Z,100.00
2023-01-29T05:22:24.923Z,100.00
2023-01-29T05:24:52.115Z,100.00
2023-01-29T05:27:41.802Z,100.00
2023-01-29T05:30:10.637Z,100.00
2023-01-29T05:32:38.279Z,100.00
2023-01-29T05:35:06.244Z,100.00
2023-01-29T05:37:34.290Z,100.00
2023-01-29T05:40:02.109Z,100.00
2023-01-29T05:46:03.602Z,100.00
2023-01-29T05:51:40.200Z,100.00
2023-01-29T05:55:22.963Z,100.00
2023-01-29T05:58:15.028Z,100.00
2023-01-29T06:09:28.539Z,100.00
2023-01-29T06:14:53.486Z,100.00
2023-01-29T06:17:47.877Z,100.00
2023-01-29T06:33:17.396Z,100.00
2023-01-29T06:35:44.454Z,100.00
2023-01-29T06:38:31.747Z,100.00
2023-01-29T06:40:59.040Z,100.00
2023-01-29T06:43:25.915Z,100.00
2023-01-29T06:45:57.708Z,100.00
2023-01-29T06:48:25.243Z,100.00
2023-01-29T06:50:57.679Z,100.00
2023-01-29T06:53:27.637Z,100.00
2023-01-29T06:55:54.877Z,100.00
2023-01-29T06:58:39.935Z,100.00
2023-01-29T07:01:09.684Z,100.00
2023-01-29T07:03:36.693Z,100.00
2023-01-29T07:06:04.479Z,100.00
2023-01-29T07:08:31.672Z,100.00
2023-01-29T07:11:04.038Z,100.00
2023-01-29T07:13:31.825Z,100.00
2023-01-29T07:16:05.476Z,100.00
2023-01-29T07:18:38.884Z,100.00
2023-01-29T07:21:07.513Z,100.00
2023-01-29T07:23:35.587Z,100.00
2023-01-29T07:26:06.667Z,100.00
2023-01-29T07:28:38.402Z,100.00
2023-01-29T07:31:06.035Z,99.66
2023-01-29T07:33:33.661Z,99.07
2023-01-29T07:36:00.627Z,99.01
2023-01-29T07:38:27.402Z,99.30
2023-01-29T07:40:54.625Z,98.46
2023-01-29T07:43:21.801Z,98.70
2023-01-29T07:45:54.055Z,98.88
2023-01-29T07:48:20.885Z,98.14
2023-01-29T07:50:55.877Z,98.24
2023-01-29T07:53:22.762Z,97.51
2023-01-29T07:55:52.990Z,97.77
2023-01-29T07:58:19.839Z,98.00
2023-01-29T08:00:46.794Z,97.89
2023-01-29T08:03:20.516Z,98.45
2023-01-29T08:05:47.626Z,98.57
2023-01-29T08:08:14.511Z,99.11
2023-01-29T08:10:42.136Z,98.22
2023-01-29T08:13:09.579Z,99.09
2023-01-29T08:15:39.081Z,98.52
2023-01-29T08:18:06.632Z,98.74
2023-01-29T08:20:33.808Z,97.82
2023-01-29T08:23:08.322Z,98.29
2023-01-29T08:25:36.078Z,97.82
2023-01-29T08:28:02.965Z,97.59
2023-01-29T08:30:56.424Z,96.54
2023-01-29T08:33:38.647Z,96.37
2023-01-29T08:36:06.744Z,97.10
2023-01-29T08:38:33.779Z,97.60
2023-01-29T08:41:05.052Z,97.11
2023-01-29T08:43:32.119Z,97.77
2023-01-29T08:45:59.041Z,98.46
2023-01-29T08:48:26.076Z,97.82
2023-01-29T08:50:52.989Z,98.79
2023-01-29T08:53:24.394Z,99.55
2023-01-29T08:55:51.169Z,98.98
2023-01-29T08:58:19.118Z,100.00
2023-01-29T09:00:45.929Z,100.00
2023-01-29T09:03:12.831Z,97.33
2023-01-29T09:05:41.573Z,95.68
2023-01-29T09:08:09.956Z,96.00
2023-01-29T09:10:36.756Z,95.73
2023-01-29T09:13:04.863Z,95.47
2023-01-29T09:15:31.656Z,95.74
2023-01-29T09:17:58.419Z,96.21
2023-01-29T09:20:25.479Z,96.85
2023-01-29T09:22:53.832Z,94.81
2023-01-29T09:25:20.716Z,94.90
2023-01-29T09:27:47.812Z,94.19
2023-01-29T09:30:15.120Z,94.39
2023-01-29T09:32:53.969Z,94.08
2023-01-29T09:35:24.567Z,94.40
2023-01-29T09:37:52.055Z,94.60
2023-01-29T09:40:52.495Z,94.98
2023-01-29T09:43:21.437Z,94.13
2023-01-29T09:46:38.704Z,93.77
2023-01-29T09:49:35.940Z,93.34
2023-01-29T09:52:07.561Z,92.57
2023-01-29T09:55:07.677Z,92.75
2023-01-29T09:58:15.296Z,93.33
2023-01-29T10:00:57.345Z,93.31
2023-01-29T10:03:42.775Z,93.42
2023-01-29T10:06:36.767Z,92.01
2023-01-29T10:09:42.520Z,92.39
2023-01-29T10:12:50.836Z,91.38
2023-01-29T10:15:55.591Z,90.13
2023-01-29T10:18:40.325Z,89.98
2023-01-29T10:21:44.773Z,90.34
2023-01-29T10:24:51.285Z,89.06
2023-01-29T10:27:19.477Z,89.48
2023-01-29T10:29:50.413Z,89.73
2023-01-29T10:32:21.371Z,88.69
2023-01-29T10:34:53.700Z,88.71
2023-01-29T10:37:26.891Z,87.29
2023-01-29T10:39:53.911Z,87.56
2023-01-29T10:42:46.835Z,87.78
2023-01-29T10:45:41.229Z,87.87
2023-01-29T10:48:53.554Z,86.93
2023-01-29T10:51:45.045Z,86.72
2023-01-29T10:54:37.208Z,85.65
2023-01-29T10:57:16.844Z,85.60
2023-01-29T11:00:01.095Z,86.78
2023-01-29T11:02:28.117Z,86.66
2023-01-29T11:04:54.929Z,86.92
2023-01-29T11:07:22.797Z,86.21
2023-01-29T11:09:57.800Z,85.38
2023-01-29T11:12:31.048Z,85.14
2023-01-29T11:15:07.005Z,84.99
2023-01-29T11:17:34.112Z,85.67
2023-01-29T11:20:01.031Z,84.81
2023-01-29T11:22:30.061Z,84.78
2023-01-29T11:25:19.700Z,85.58
2023-01-29T11:28:03.192Z,84.39
2023-01-29T11:30:39.509Z,84.43
2023-01-29T11:33:19.670Z,84.57
2023-01-29T11:35:46.799Z,84.03
2023-01-29T11:38:18.961Z,84.12
2023-01-29T11:40:46.237Z,84.32
2023-01-29T11:43:20.924Z,85.59
2023-01-29T11:45:50.750Z,86.11
2023-01-29T11:48:20.398Z,86.07
2023-01-29T11:51:22.440Z,86.16
2023-01-29T11:53:57.199Z,86.53
2023-01-29T11:56:46.026Z,85.92
2023-01-29T11:59:50.109Z,86.42
2023-01-29T12:02:51.396Z,86.90
2023-01-29T12:05:21.278Z,87.28
2023-01-29T12:13:28.702Z,87.71
2023-01-29T12:16:18.551Z,88.69
2023-01-29T12:22:47.663Z,88.63
2023-01-29T12:25:27.280Z,88.24
2023-01-29T12:28:05.609Z,87.87
2023-01-29T12:30:55.286Z,88.76
2023-01-29T12:33:52.501Z,88.93
2023-01-29T12:36:34.309Z,88.28
2023-01-29T12:39:02.845Z,87.94
2023-01-29T12:41:46.049Z,87.98
2023-01-29T12:44:42.744Z,88.23
2023-01-29T12:47:23.772Z,88.95
2023-01-29T12:50:03.291Z,88.98
2023-01-29T12:52:52.703Z,89.64
2023-01-29T12:55:22.135Z,89.69
2023-01-29T12:57:58.307Z,89.79
2023-01-29T13:00:38.723Z,89.43
2023-01-29T13:03:24.025Z,87.97
2023-01-29T13:05:55.661Z,87.67
2023-01-29T13:08:53.724Z,87.67
2023-01-29T13:11:31.923Z,87.48
2023-01-29T13:14:05.350Z,87.92
2023-01-29T13:16:44.293Z,87.99
2023-01-29T13:21:26.192Z,87.06
2023-01-29T13:24:22.048Z,87.73
2023-01-29T13:39:39.663Z,87.45
2023-01-29T13:46:09.748Z,87.77
2023-01-29T13:52:47.259Z,88.17
2023-01-29T13:55:14.468Z,87.29
2023-01-29T13:57:47.283Z,87.97
2023-01-29T14:00:34.792Z,87.70
2023-01-29T14:03:09.282Z,86.86
2023-01-29T14:06:28.229Z,86.44
2023-01-29T14:09:07.305Z,86.50
2023-01-29T14:11:59.626Z,86.70
2023-01-29T14:15:23.240Z,87.12
2023-01-29T14:18:19.122Z,86.95
2023-01-29T14:24:40.040Z,86.25
2023-01-29T14:28:00.831Z,86.36
2023-01-29T14:30:57.017Z,86.52
2023-01-29T14:33:41.835Z,86.74
2023-01-29T14:37:45.376Z,86.62
2023-01-29T14:40:02.000Z,87.12
2023-01-29T14:42:44.942Z,88.00
2023-01-29T14:45:42.089Z,88.92
2023-01-29T14:48:12.524Z,88.69
2023-01-29T14:50:45.559Z,88.99
2023-01-29T14:53:40.609Z,89.25
2023-01-29T14:56:24.645Z,89.27
2023-01-29T14:59:03.552Z,90.29
2023-01-29T15:01:40.669Z,90.50
2023-01-29T15:04:12.167Z,90.53
2023-01-29T15:06:47.341Z,90.08
2023-01-29T15:09:36.657Z,90.39
2023-01-29T15:12:15.819Z,90.52
2023-01-29T15:14:51.683Z,90.97
2023-01-29T15:17:46.601Z,91.07
2023-01-29T15:20:38.709Z,91.37
2023-01-29T15:23:24.293Z,91.08
2023-01-29T15:26:29.272Z,91.17
2023-01-29T15:29:06.290Z,91.00
2023-01-29T15:31:36.118Z,91.63
2023-01-29T15:34:12.393Z,91.95
2023-01-29T15:36:41.954Z,92.08
2023-01-29T15:39:22.362Z,92.20
2023-01-29T15:41:57.520Z,92.32
2023-01-29T15:44:25.674Z,92.21
2023-01-29T15:49:48.204Z,92.49
2023-01-29T15:52:23.003Z,92.70
2023-01-29T15:54:53.450Z,92.56
2023-01-29T15:57:35.766Z,92.38
2023-01-29T16:00:06.841Z,91.83
2023-01-29T16:02:43.795Z,92.29
2023-01-29T16:05:22.150Z,91.76
2023-01-29T16:07:51.028Z,91.06
2023-01-29T16:10:22.793Z,90.93
2023-01-29T16:12:52.340Z,91.47
2023-01-29T16:15:32.874Z,91.61
2023-01-29T16:18:23.354Z,91.32
2023-01-29T16:20:56.602Z,91.76
2023-01-29T16:23:28.754Z,91.50
2023-01-29T16:26:17.446Z,91.51
2023-01-29T16:29:04.541Z,90.81
2023-01-29T16:34:23.943Z,90.05
2023-01-29T16:42:30.406Z,91.35
2023-01-29T16:45:09.380Z,91.00
2023-01-29T16:47:43.787Z,91.14
2023-01-29T16:50:54.362Z,91.80
2023-01-29T16:53:32.508Z,91.26
2023-01-29T16:56:07.673Z,91.56
2023-01-29T16:58:37.458Z,92.26
2023-01-29T17:01:11.686Z,91.99
2023-01-29T17:03:40.932Z,91.69
2023-01-29T17:06:23.322Z,91.23
2023-01-29T17:08:53.101Z,92.13
2023-01-29T17:11:57.584Z,92.06
2023-01-29T17:15:02.490Z,91.77
2023-01-29T17:17:39.875Z,92.41
2023-01-29T17:20:17.411Z,92.00
2023-01-29T17:23:18.371Z,92.34
2023-01-29T17:26:11.373Z,91.58
2023-01-29T17:28:42.493Z,91.49
2023-01-29T17:31:50.812Z,91.13
2023-01-29T17:34:52.524Z,91.48
2023-01-29T17:37:20.684Z,91.46
2023-01-29T17:43:41.848Z,92.77
2023-01-29T17:46:31.942Z,92.51
2023-01-29T17:49:00.520Z,92.95
2023-01-29T17:51:27.505Z,92.88
2023-01-29T17:53:54.444Z,92.71
2023-01-29T17:56:31.093Z,92.35
2023-01-29T17:58:58.546Z,92.48
2023-01-29T18:01:27.424Z,91.93
2023-01-29T18:03:58.168Z,92.53
2023-01-29T18:06:34.997Z,92.04
2023-01-29T18:09:02.401Z,91.83
2023-01-29T18:11:29.587Z,90.85
2023-01-29T18:14:01.311Z,90.29
2023-01-29T18:16:50.903Z,90.56
2023-01-29T18:19:31.294Z,89.72
2023-01-29T18:21:58.263Z,89.81
2023-01-29T18:24:26.877Z,89.67
2023-01-29T18:26:57.139Z,89.19
2023-01-29T18:29:40.805Z,89.95
2023-01-29T18:32:08.023Z,89.49
2023-01-29T18:34:35.540Z,89.50
2023-01-29T18:37:12.136Z,89.48
2023-01-29T18:39:39.914Z,89.78
2023-01-29T18:42:07.119Z,90.04
2023-01-29T18:44:56.571Z,89.97
2023-01-29T18:47:23.295Z,90.81
2023-01-29T18:49:52.321Z,91.69
2023-01-29T18:52:19.415Z,92.65
2023-01-29T18:54:46.477Z,93.03
2023-01-29T18:58:25.289Z,93.13
2023-01-29T19:00:06.150Z,93.87
2023-01-29T19:02:33.660Z,93.52
2023-01-29T19:05:00.643Z,93.62
2023-01-29T19:07:27.609Z,94.00
2023-01-29T19:10:02.326Z,94.26
2023-01-29T19:12:31.625Z,94.47
2023-01-29T19:14:59.115Z,94.40
2023-01-29T19:17:26.415Z,93.85
2023-01-29T19:19:53.497Z,94.41
2023-01-29T19:22:21.587Z,95.02
2023-01-29T19:24:48.640Z,94.86
2023-01-29T19:27:15.571Z,94.98
2023-01-29T19:29:42.527Z,95.20
2023-01-29T19:32:10.047Z,95.80
2023-01-29T19:34:36.928Z,96.20
2023-01-29T19:37:04.249Z,96.28
2023-01-29T19:39:34.384Z,96.78
2023-01-29T19:42:01.664Z,96.55
2023-01-29T19:44:29.123Z,96.71
2023-01-29T19:46:58.323Z,96.14
2023-01-29T19:49:26.605Z,95.73
2023-01-29T19:51:56.420Z,95.37
2023-01-29T19:54:23.695Z,95.68
2023-01-29T19:56:51.112Z,95.18
2023-01-29T19:59:18.735Z,94.63
2023-01-29T20:13:00.453Z,92.10
2023-01-29T20:15:28.212Z,92.74
2023-01-29T20:20:59.985Z,92.03
2023-01-29T20:26:15.425Z,91.26
2023-01-29T20:28:43.584Z,91.14
2023-01-29T20:31:10.827Z,90.41
2023-01-29T20:33:39.660Z,89.95
2023-01-29T20:36:10.179Z,90.15
2023-01-29T20:38:37.279Z,90.21
2023-01-29T20:41:08.489Z,90.45
2023-01-29T20:43:35.783Z,91.03
2023-01-29T20:46:04.127Z,91.25
2023-01-29T20:48:32.136Z,92.45
2023-01-29T20:51:16.241Z,92.13
2023-01-29T20:53:49.714Z,92.52
2023-01-29T20:56:18.148Z,92.76
2023-01-29T20:58:54.460Z,92.42
2023-01-29T21:01:24.855Z,93.52
2023-01-29T21:03:52.447Z,93.44
2023-01-29T21:06:20.038Z,93.99
2023-01-29T21:08:51.820Z,93.20
2023-01-29T21:11:22.627Z,93.70
2023-01-29T21:13:54.147Z,93.75
2023-01-29T21:16:21.413Z,93.91
2023-01-29T21:18:48.384Z,93.84
2023-01-29T21:21:15.494Z,93.47
2023-01-29T21:23:42.438Z,93.32
2023-01-29T21:26:09.484Z,93.74
2023-01-29T21:28:36.450Z,94.05
2023-01-29T21:31:11.733Z,94.02
2023-01-29T21:33:40.309Z,93.94
2023-01-29T21:36:10.804Z,94.71
2023-01-29T21:38:38.315Z,95.25
2023-01-29T21:41:11.479Z,94.68
2023-01-29T21:43:41.806Z,94.61
2023-01-29T21:46:12.567Z,95.07
2023-01-29T21:48:46.299Z,96.04
2023-01-29T21:51:17.921Z,96.34
2023-01-29T21:53:49.657Z,95.14
2023-01-29T21:59:55.075Z,93.40
2023-01-29T22:02:27.020Z,93.47
2023-01-29T22:05:52.616Z,94.43
2023-01-29T22:08:19.769Z,93.68
2023-01-29T22:10:47.210Z,93.40
2023-01-29T22:13:15.752Z,93.28
2023-01-29T22:15:42.717Z,92.56
2023-01-29T22:18:10.019Z,93.50
2023-01-29T22:20:42.609Z,93.50
2023-01-29T22:23:09.560Z,94.28
2023-01-29T22:25:37.046Z,93.47
2023-01-29T22:28:03.864Z,93.27
2023-01-29T22:30:31.953Z,94.58
2023-01-29T22:32:59.313Z,95.79
2023-01-29T22:35:26.366Z,96.97
2023-01-29T22:37:56.221Z,97.64
2023-01-29T22:40:23.835Z,97.97
2023-01-29T22:42:50.824Z,97.46
2023-01-29T22:45:17.806Z,96.67
2023-01-29T22:47:45.285Z,96.05
2023-01-29T22:50:14.368Z,95.33
2023-01-29T22:52:43.694Z,95.20
2023-01-29T22:55:11.900Z,95.08
2023-01-29T22:57:39.593Z,95.08
2023-01-29T23:00:14.604Z,95.25
2023-01-29T23:02:41.582Z,95.34
2023-01-29T23:05:08.690Z,95.75
2023-01-29T23:07:35.728Z,96.36
2023-01-29T23:10:06.154Z,97.05
2023-01-29T23:12:33.377Z,96.64
2023-01-29T23:15:00.600Z,97.31
2023-01-29T23:17:44.079Z,97.44
2023-01-29T23:20:22.808Z,98.24
2023-01-29T23:22:52.810Z,98.04
2023-01-29T23:25:42.989Z,98.59
2023-01-29T23:28:10.001Z,99.17
2023-01-29T23:30:39.904Z,98.93
2023-01-29T23:33:07.653Z,99.55
2023-01-29T23:35:34.885Z,99.86
2023-01-29T23:38:01.923Z,99.33
2023-01-29T23:40:29.379Z,99.84
2023-01-29T23:42:56.401Z,100.00
2023-01-29T23:45:23.431Z,99.99
2023-01-29T23:47:51.559Z,100.00
2023-01-29T23:50:19.189Z,99.83
2023-01-29T23:52:46.665Z,99.57
2023-01-29T23:55:16.403Z,99.59
2023-01-29T23:57:45.276Z,99.42
